Time;durP1;ratioP1;P1;durP2;ratioP2;P2;SDS_P1;SDS_P2;PMS_P1;PMS_P2;Temp;Humidity;BMP_temperature;BMP_pressure;BME280_temperature;BME280_humidity;BME280_pressure;Samples;Min_cycle;Max_cycle;Signal;HPM_P1;HPM_P2
2021/11/22 00:01:33;;;;;;;35.83;20.88;;;;;;;6.23;84.17;99857.19;2125817;82;21047;-72
2021/11/22 00:04:34;;;;;;;35.48;20.95;;;;;;;6.27;84.30;99863.81;2123916;82;20995;-72
2021/11/22 00:07:36;;;;;;;32.98;21.30;;;;;;;6.26;84.22;99864.80;2141673;81;21027;-73
2021/11/22 00:10:38;;;;;;;32.42;20.50;;;;;;;6.30;84.29;99854.79;2138086;81;21010;-71
2021/11/22 00:13:40;;;;;;;34.27;21.37;;;;;;;6.37;84.37;99863.78;2134021;81;21011;-71
2021/11/22 00:16:42;;;;;;;36.20;21.45;;;;;;;6.40;84.29;99863.98;2135126;81;21047;-71
2021/11/22 00:19:43;;;;;;;31.40;18.62;;;;;;;6.41;84.27;99865.14;2141120;81;21070;-72
2021/11/22 00:22:45;;;;;;;29.15;18.65;;;;;;;6.45;84.20;99865.70;2135705;81;20994;-72
2021/11/22 00:25:47;;;;;;;28.50;17.95;;;;;;;6.47;84.23;99868.50;2142081;81;21027;-71
2021/11/22 00:28:49;;;;;;;30.92;18.82;;;;;;;6.51;84.14;99873.02;2142942;81;21032;-72
2021/11/22 00:31:57;;;;;;;32.78;19.12;;;;;;;6.58;84.32;99870.12;2138500;81;21377;-73
2021/11/22 00:35:06;;;;;;;32.42;19.17;;;;;;;6.64;84.15;99873.97;2140620;81;21021;-72
2021/11/22 00:38:09;;;;;;;32.10;19.67;;;;;;;6.64;84.11;99885.34;2137513;81;21056;-72
2021/11/22 00:41:11;;;;;;;29.63;18.35;;;;;;;6.65;84.06;99877.80;2138838;81;21674;-72
2021/11/22 00:44:13;;;;;;;30.35;18.77;;;;;;;6.66;83.91;99886.03;2144011;81;21033;-72
2021/11/22 00:47:14;;;;;;;29.55;18.98;;;;;;;6.65;83.84;99890.16;2145460;81;21018;-72
2021/11/22 00:50:16;;;;;;;31.48;17.23;;;;;;;6.63;83.82;99890.29;2139065;81;20974;-72
2021/11/22 00:53:18;;;;;;;29.15;19.27;;;;;;;6.60;83.79;99901.13;2141646;81;21079;-72
2021/11/22 00:56:21;;;;;;;30.77;18.77;;;;;;;6.59;83.90;99902.58;2137759;81;21013;-72
2021/11/22 00:59:23;;;;;;;36.48;19.62;;;;;;;6.56;83.82;99902.41;2137795;81;21118;-72
2021/11/22 01:02:25;;;;;;;32.90;17.87;;;;;;;6.54;83.86;99899.08;2140047;81;21402;-72
2021/11/22 01:05:27;;;;;;;31.65;18.45;;;;;;;6.48;83.91;99899.18;2137165;81;21028;-72
2021/11/22 01:08:29;;;;;;;31.57;17.52;;;;;;;6.46;83.92;99897.66;2147024;81;20993;-72
2021/11/22 01:11:30;;;;;;;27.07;15.95;;;;;;;6.43;83.98;99899.27;2144696;81;21559;-72
2021/11/22 01:14:34;;;;;;;23.70;14.68;;;;;;;6.43;83.99;99905.86;2148105;81;21016;-73
2021/11/22 01:17:37;;;;;;;24.32;14.50;;;;;;;6.44;84.06;99907.02;2146071;81;20975;-72
2021/11/22 01:20:41;;;;;;;20.37;13.85;;;;;;;6.48;84.08;99904.45;2142891;81;21043;-72
2021/11/22 01:23:43;;;;;;;21.70;13.03;;;;;;;6.51;84.08;99905.97;2143445;81;21020;-72
2021/11/22 01:26:44;;;;;;;22.55;14.43;;;;;;;6.45;83.96;99909.19;2151639;81;21055;-72
2021/11/22 01:29:46;;;;;;;21.37;13.45;;;;;;;6.44;84.01;99915.42;2148345;81;20956;-72
2021/11/22 01:32:49;;;;;;;17.98;10.90;;;;;;;6.40;83.97;99916.20;2148086;81;21049;-72
2021/11/22 01:35:50;;;;;;;17.82;10.50;;;;;;;6.34;83.95;99915.47;2145738;81;21059;-72
2021/11/22 01:38:52;;;;;;;18.23;11.15;;;;;;;6.34;83.98;99926.50;2148248;81;20993;-72
2021/11/22 01:41:54;;;;;;;15.28;10.50;;;;;;;6.38;84.22;99922.59;2141886;81;21452;-72
2021/11/22 01:44:55;;;;;;;15.13;10.28;;;;;;;6.34;83.93;99931.77;2142318;81;20982;-72
2021/11/22 01:47:58;;;;;;;16.32;10.43;;;;;;;6.29;84.02;99928.24;2142473;81;21415;-72
2021/11/22 01:50:59;;;;;;;17.92;11.55;;;;;;;6.26;84.08;99925.41;2150615;81;21021;-72
2021/11/22 01:54:01;;;;;;;13.83;9.60;;;;;;;6.26;84.10;99935.94;2147263;81;21047;-72
2021/11/22 01:57:04;;;;;;;13.35;9.75;;;;;;;6.25;84.08;99936.92;2149292;81;21579;-72
2021/11/22 02:00:14;;;;;;;14.10;9.40;;;;;;;6.23;84.03;99949.41;2151980;81;21061;-72
2021/11/22 02:03:18;;;;;;;15.03;9.23;;;;;;;6.21;84.15;99947.39;2150859;80;20972;-71
2021/11/22 02:06:19;;;;;;;12.28;8.30;;;;;;;6.20;84.09;99952.33;2145303;81;21084;-71
2021/11/22 02:09:21;;;;;;;15.78;9.63;;;;;;;6.27;84.33;99949.45;2121031;82;21071;-72
2021/11/22 02:12:23;;;;;;;15.68;10.58;;;;;;;6.31;84.15;99939.48;2122311;82;20962;-71
2021/11/22 02:15:26;;;;;;;15.45;10.15;;;;;;;6.31;84.06;99941.25;2123899;82;20957;-73
2021/11/22 02:18:28;;;;;;;15.08;9.83;;;;;;;6.29;84.09;99948.00;2121510;82;21068;-72
2021/11/22 02:21:30;;;;;;;13.65;9.78;;;;;;;6.28;84.12;99942.40;2121821;82;20965;-72
2021/11/22 02:24:32;;;;;;;17.45;10.20;;;;;;;6.31;84.12;99946.06;2125199;82;21033;-72
2021/11/22 02:27:35;;;;;;;13.58;8.80;;;;;;;6.33;84.10;99941.45;2124334;82;20998;-72
2021/11/22 02:30:40;;;;;;;14.38;8.85;;;;;;;6.35;84.09;99952.69;2119444;82;21005;-72
2021/11/22 02:33:42;;;;;;;16.23;9.35;;;;;;;6.38;84.13;99958.17;2117421;82;21016;-72
2021/11/22 02:36:43;;;;;;;25.40;12.18;;;;;;;6.38;84.05;99961.63;2125134;82;20954;-72
2021/11/22 02:39:45;;;;;;;19.87;11.75;;;;;;;6.38;84.06;99965.58;2122668;82;21075;-72
2021/11/22 02:42:47;;;;;;;15.88;9.05;;;;;;;6.31;83.93;99972.41;2124606;82;21020;-72
2021/11/22 02:45:49;;;;;;;14.45;8.55;;;;;;;6.23;83.93;99973.13;2126103;82;21852;-72
2021/11/22 02:48:51;;;;;;;13.58;8.40;;;;;;;6.16;83.95;99975.97;2116669;82;21005;-72
2021/11/22 02:51:52;;;;;;;15.98;9.50;;;;;;;6.16;84.04;99977.28;2123671;82;21058;-71
2021/11/22 02:54:54;;;;;;;18.00;9.70;;;;;;;6.14;84.09;99980.56;2120263;82;20976;-72
2021/11/22 02:57:56;;;;;;;14.85;9.33;;;;;;;6.16;84.16;99982.55;2118719;81;20981;-71
2021/11/22 03:00:57;;;;;;;14.58;8.65;;;;;;;6.21;84.21;99990.86;2124827;82;21508;-72
2021/11/22 03:03:59;;;;;;;12.60;8.45;;;;;;;6.25;84.19;99994.04;2119622;82;20980;-71
2021/11/22 03:07:01;;;;;;;13.70;8.20;;;;;;;6.23;84.05;99993.37;2127716;81;21051;-73
2021/11/22 03:10:06;;;;;;;12.25;7.50;;;;;;;6.20;83.96;99994.48;2139806;81;21821;-72
2021/11/22 03:13:08;;;;;;;12.58;8.00;;;;;;;6.18;84.02;99996.91;2136473;81;21043;-72
2021/11/22 03:16:11;;;;;;;13.98;7.85;;;;;;;6.19;84.06;99996.75;2142283;81;21295;-72
2021/11/22 03:19:13;;;;;;;11.05;7.78;;;;;;;6.22;84.20;100000.45;2136796;81;21013;-72
2021/11/22 03:22:14;;;;;;;13.98;8.78;;;;;;;6.27;84.20;99995.56;2139050;81;20980;-71
2021/11/22 03:25:18;;;;;;;15.60;9.48;;;;;;;6.24;83.94;100003.75;2137389;81;20997;-72
2021/11/22 03:28:21;;;;;;;13.83;9.48;;;;;;;6.19;83.99;100001.20;2139983;81;21047;-72
2021/11/22 03:31:23;;;;;;;13.95;8.38;;;;;;;6.17;83.98;100010.58;2141946;81;21031;-72
2021/11/22 03:34:27;;;;;;;13.90;8.80;;;;;;;6.20;84.14;100010.30;2139419;81;21033;-72
2021/11/22 03:37:29;;;;;;;18.35;8.58;;;;;;;6.26;84.11;100012.36;2138796;81;21013;-72
2021/11/22 03:40:30;;;;;;;13.48;8.00;;;;;;;6.25;83.98;100009.84;2136983;81;22657;-73
2021/11/22 03:43:36;;;;;;;13.72;8.95;;;;;;;6.25;83.92;100018.61;2138176;81;21036;-73
2021/11/22 03:46:36;;;;;;;13.98;9.18;;;;;;;6.28;83.90;100023.59;2140863;81;21070;-71
2021/11/22 03:49:37;;;;;;;11.28;8.43;;;;;;;6.28;83.90;100025.41;2139959;81;21092;-72
2021/11/22 03:52:39;;;;;;;13.30;9.63;;;;;;;6.27;83.86;100024.55;2137678;81;20960;-72
2021/11/22 03:55:41;;;;;;;14.80;8.55;;;;;;;6.27;83.83;100029.81;2141490;81;21532;-71
2021/11/22 03:58:42;;;;;;;13.45;10.00;;;;;;;6.28;83.75;100031.50;2141616;81;22430;-73
2021/11/22 04:01:44;;;;;;;15.85;10.72;;;;;;;6.25;83.67;100034.88;2141173;81;21036;-72
2021/11/22 04:04:45;;;;;;;13.95;10.23;;;;;;;6.20;83.64;100041.91;2138996;81;21005;-72
2021/11/22 04:07:50;;;;;;;17.90;11.83;;;;;;;6.14;83.59;100038.52;2142988;81;21441;-72
2021/11/22 04:10:50;;;;;;;16.55;11.25;;;;;;;6.08;83.59;100042.18;2145367;80;21095;-73
2021/11/22 04:13:53;;;;;;;15.23;10.55;;;;;;;6.03;83.71;100040.81;2145980;80;21596;-72
2021/11/22 04:16:54;;;;;;;16.87;10.85;;;;;;;6.03;83.77;100051.84;2144910;81;21024;-72
2021/11/22 04:19:56;;;;;;;16.07;10.05;;;;;;;6.00;83.73;100059.53;2144840;81;21001;-72
2021/11/22 04:22:58;;;;;;;13.93;10.20;;;;;;;5.99;83.79;100065.75;2150734;81;21423;-72
2021/11/22 04:26:00;;;;;;;15.18;9.35;;;;;;;6.01;83.78;100077.48;2148349;81;21004;-72
2021/11/22 04:29:02;;;;;;;12.85;9.80;;;;;;;6.02;83.79;100068.11;2148314;81;21063;-72
2021/11/22 04:32:05;;;;;;;18.30;11.10;;;;;;;6.03;83.78;100072.91;2146270;81;21527;-72
2021/11/22 04:35:11;;;;;;;20.97;12.60;;;;;;;6.03;83.72;100064.52;2149356;81;21541;-72
2021/11/22 04:38:12;;;;;;;20.72;12.55;;;;;;;5.95;83.53;100066.19;2146224;80;21024;-72
2021/11/22 04:41:14;;;;;;;17.90;11.73;;;;;;;5.88;83.57;100066.34;2147626;81;21369;-72
2021/11/22 04:44:15;;;;;;;17.45;11.45;;;;;;;5.87;83.76;100064.20;2145793;81;21525;-72
2021/11/22 04:47:20;;;;;;;16.70;12.07;;;;;;;5.89;83.77;100070.17;2146651;81;20983;-73
2021/11/22 04:50:21;;;;;;;20.97;11.80;;;;;;;5.88;83.71;100079.02;2151071;81;21058;-72
2021/11/22 04:53:22;;;;;;;24.57;13.32;;;;;;;5.91;83.78;100078.73;2152121;81;20975;-72
2021/11/22 04:56:24;;;;;;;25.12;14.55;;;;;;;5.89;83.76;100082.02;2147646;81;21450;-72
2021/11/22 04:59:26;;;;;;;22.05;14.87;;;;;;;5.87;83.74;100087.08;2146489;81;21028;-72
2021/11/22 05:02:27;;;;;;;26.37;16.12;;;;;;;5.88;83.88;100093.99;2151169;80;21045;-72
2021/11/22 05:05:29;;;;;;;25.70;14.47;;;;;;;5.89;83.91;100096.50;2146767;80;21040;-73
2021/11/22 05:08:31;;;;;;;23.62;13.50;;;;;;;5.88;83.84;100100.58;2132556;81;21087;-72
2021/11/22 05:11:32;;;;;;;22.22;13.88;;;;;;;5.86;83.81;100104.68;2123655;82;21525;-72
2021/11/22 05:14:34;;;;;;;21.07;13.08;;;;;;;5.84;83.70;100104.80;2118779;82;21063;-72
2021/11/22 05:17:35;;;;;;;22.37;13.88;;;;;;;5.87;83.85;100115.55;2124398;82;21005;-72
2021/11/22 05:20:39;;;;;;;21.93;14.15;;;;;;;5.87;83.79;100114.73;2120377;82;21028;-71
2021/11/22 05:23:41;;;;;;;19.48;13.25;;;;;;;5.83;83.71;100120.27;2122589;82;21058;-72
2021/11/22 05:26:42;;;;;;;22.93;14.33;;;;;;;5.79;83.68;100127.24;2122607;82;21008;-73
2021/11/22 05:29:44;;;;;;;25.30;15.78;;;;;;;5.83;83.91;100130.80;2123242;82;21034;-72
2021/11/22 05:32:47;;;;;;;22.93;14.93;;;;;;;5.84;83.89;100135.09;2118706;82;21051;-71
2021/11/22 05:35:49;;;;;;;24.52;14.15;;;;;;;5.85;84.05;100138.05;2118346;82;21586;-73
2021/11/22 05:38:50;;;;;;;22.32;15.03;;;;;;;5.81;84.06;100143.75;2116084;82;21083;-73
2021/11/22 05:41:53;;;;;;;27.87;14.68;;;;;;;5.83;84.11;100149.23;2119815;82;21793;-72
2021/11/22 05:44:54;;;;;;;20.88;13.40;;;;;;;5.93;84.39;100154.99;2119562;82;21095;-72
2021/11/22 05:47:56;;;;;;;23.45;14.45;;;;;;;5.98;84.19;100165.50;2118677;82;21480;-72
2021/11/22 05:50:59;;;;;;;21.60;14.20;;;;;;;6.04;84.22;100168.91;2120047;82;22217;-70
2021/11/22 05:54:02;;;;;;;27.55;16.05;;;;;;;6.09;84.12;100172.45;2120210;82;20993;-72
2021/11/22 05:57:04;;;;;;;23.18;15.10;;;;;;;6.12;84.12;100173.98;2114105;82;20996;-71
2021/11/22 06:00:09;;;;;;;21.97;14.05;;;;;;;6.11;83.93;100184.16;2117992;82;21511;-73
2021/11/22 06:03:13;;;;;;;21.87;13.70;;;;;;;6.09;83.90;100179.53;2114540;82;21803;-71
2021/11/22 06:06:15;;;;;;;23.73;14.85;;;;;;;6.07;83.84;100183.61;2125369;82;21018;-72
2021/11/22 06:09:16;;;;;;;25.68;16.00;;;;;;;6.11;84.00;100185.02;2114733;82;20995;-71
2021/11/22 06:12:18;;;;;;;26.62;15.40;;;;;;;6.11;83.82;100191.60;2118063;82;21072;-70
2021/11/22 06:15:21;;;;;;;25.30;16.80;;;;;;;6.09;83.66;100198.80;2123467;82;21071;-72
2021/11/22 06:18:22;;;;;;;30.62;18.90;;;;;;;6.05;83.66;100198.25;2121608;82;20986;-72
2021/11/22 06:21:24;;;;;;;27.67;17.60;;;;;;;6.03;83.79;100205.94;2118636;82;21063;-74
2021/11/22 06:24:26;;;;;;;25.45;15.10;;;;;;;6.02;83.96;100206.88;2123435;81;21061;-74
2021/11/22 06:27:28;;;;;;;32.08;18.60;;;;;;;6.04;83.86;100221.59;2125040;82;21080;-75
2021/11/22 06:30:30;;;;;;;24.63;15.18;;;;;;;6.04;83.88;100219.45;2120526;82;21027;-74
2021/11/22 06:33:32;;;;;;;30.10;17.37;;;;;;;6.06;83.93;100212.25;2117278;82;21541;-74
2021/11/22 06:36:34;;;;;;;34.65;19.42;;;;;;;6.07;83.92;100223.13;2118720;82;21511;-75
2021/11/22 06:39:38;;;;;;;33.08;17.50;;;;;;;6.09;83.97;100231.73;2112983;82;20980;-74
2021/11/22 06:42:39;;;;;;;33.60;18.12;;;;;;;6.12;83.94;100245.95;2113614;82;21647;-75
2021/11/22 06:45:41;;;;;;;32.60;17.80;;;;;;;6.11;83.87;100252.20;2120155;81;21076;-74
2021/11/22 06:48:43;;;;;;;31.93;17.27;;;;;;;6.07;83.78;100253.42;2116104;82;21021;-74
2021/11/22 06:51:45;;;;;;;31.27;17.35;;;;;;;6.01;83.81;100255.28;2119359;82;20964;-74
2021/11/22 06:54:49;;;;;;;39.63;18.48;;;;;;;6.00;83.77;100252.30;2116213;82;21047;-74
2021/11/22 06:57:51;;;;;;;41.40;20.10;;;;;;;5.96;83.71;100267.52;2119061;82;21527;-75
2021/11/22 07:00:53;;;;;;;34.45;19.00;;;;;;;5.91;83.67;100274.13;2115975;82;21016;-73
2021/11/22 07:03:56;;;;;;;34.00;18.70;;;;;;;5.89;83.73;100272.95;2112204;82;21335;-74
2021/11/22 07:06:58;;;;;;;33.88;18.55;;;;;;;5.92;83.93;100273.17;2115200;82;21043;-73
2021/11/22 07:10:00;;;;;;;33.08;18.02;;;;;;;5.95;84.01;100279.52;2136881;81;21056;-73
2021/11/22 07:13:02;;;;;;;29.25;17.07;;;;;;;5.94;83.98;100275.20;2138705;81;20951;-74
2021/11/22 07:16:04;;;;;;;30.60;16.87;;;;;;;5.92;84.04;100275.80;2140155;81;21591;-74
2021/11/22 07:19:06;;;;;;;34.55;18.60;;;;;;;5.91;84.03;100287.29;2142152;81;21515;-74
2021/11/22 07:22:09;;;;;;;35.52;19.98;;;;;;;5.91;84.08;100282.84;2133187;81;21048;-74
2021/11/22 07:25:12;;;;;;;38.40;20.97;;;;;;;5.92;84.08;100291.61;2140092;81;20982;-73
2021/11/22 07:28:14;;;;;;;37.78;20.17;;;;;;;5.88;84.05;100305.50;2143522;81;21041;-75
2021/11/22 07:31:15;;;;;;;37.85;18.85;;;;;;;5.88;84.18;100313.89;2136427;81;21004;-73
2021/11/22 07:34:17;;;;;;;41.83;21.07;;;;;;;5.93;84.29;100322.23;2140265;81;21599;-74
2021/11/22 07:37:19;;;;;;;37.03;18.90;;;;;;;5.97;84.43;100319.70;2135908;81;21039;-73
2021/11/22 07:40:21;;;;;;;40.45;19.98;;;;;;;6.01;84.42;100318.50;2136167;81;20992;-73
2021/11/22 07:43:23;;;;;;;48.35;22.50;;;;;;;6.02;84.45;100318.34;2135670;81;21021;-73
2021/11/22 07:46:26;;;;;;;37.03;18.87;;;;;;;6.08;84.54;100310.39;2133363;81;21031;-73
2021/11/22 07:49:28;;;;;;;46.58;20.55;;;;;;;6.23;84.61;100318.79;2140172;81;21052;-73
2021/11/22 07:52:30;;;;;;;36.68;19.42;;;;;;;6.26;84.30;100320.66;2134402;81;20973;-73
2021/11/22 07:55:32;;;;;;;43.28;21.87;;;;;;;6.26;84.27;100328.57;2137792;81;22274;-73
2021/11/22 07:58:34;;;;;;;43.28;22.90;;;;;;;6.25;84.20;100330.87;2132677;81;21454;-74
2021/11/22 08:01:36;;;;;;;44.27;23.27;;;;;;;6.25;84.25;100338.77;2139416;81;20982;-73
2021/11/22 08:04:38;;;;;;;42.43;22.52;;;;;;;6.23;84.15;100335.91;2144934;81;21051;-74
2021/11/22 08:07:42;;;;;;;39.98;20.90;;;;;;;6.24;84.16;100343.67;2138344;81;21439;-73
2021/11/22 08:10:47;;;;;;;42.53;22.52;;;;;;;6.20;84.04;100352.83;2139771;81;21081;-73
2021/11/22 08:13:49;;;;;;;35.33;20.05;;;;;;;6.21;84.15;100346.58;2140769;81;21436;-73
2021/11/22 08:16:51;;;;;;;36.42;21.25;;;;;;;6.16;83.98;100348.77;2144049;81;21084;-73
2021/11/22 08:19:54;;;;;;;36.40;20.72;;;;;;;6.06;83.85;100354.50;2141132;81;21043;-75
2021/11/22 08:22:57;;;;;;;35.68;18.67;;;;;;;6.04;83.91;100360.38;2125008;81;20957;-73
2021/11/22 08:25:59;;;;;;;30.23;17.85;;;;;;;5.99;83.85;100361.25;2143389;81;21041;-74
2021/11/22 08:29:00;;;;;;;36.63;18.65;;;;;;;5.93;83.86;100359.11;2136354;81;21521;-74
2021/11/22 08:32:03;;;;;;;33.02;18.25;;;;;;;5.89;83.89;100372.20;2137736;81;21056;-74
2021/11/22 08:35:07;;;;;;;31.02;18.32;;;;;;;5.87;83.90;100371.48;2140068;81;21037;-74
2021/11/22 08:38:09;;;;;;;39.88;20.20;;;;;;;5.85;83.95;100379.50;2140841;81;20997;-75
2021/11/22 08:41:11;;;;;;;38.88;20.80;;;;;;;5.82;83.95;100384.55;2145229;81;21062;-79
2021/11/22 08:44:12;;;;;;;33.60;18.48;;;;;;;5.82;83.98;100383.23;2143174;81;21000;-75
2021/11/22 08:47:14;;;;;;;36.83;20.23;;;;;;;5.80;83.87;100390.45;2143205;81;21016;-72
2021/11/22 08:50:17;;;;;;;32.58;17.20;;;;;;;5.79;83.88;100395.34;2144590;81;21448;-74
2021/11/22 08:53:19;;;;;;;32.78;17.70;;;;;;;5.82;83.91;100392.94;2141831;81;21490;-72
2021/11/22 08:56:21;;;;;;;33.58;16.87;;;;;;;5.88;83.98;100398.99;2136659;81;20997;-73
2021/11/22 08:59:23;;;;;;;33.88;19.07;;;;;;;6.01;84.15;100397.52;2136546;81;21481;-72
2021/11/22 09:02:25;;;;;;;35.63;20.08;;;;;;;6.21;84.43;100404.55;2143480;81;21043;-74
2021/11/22 09:05:27;;;;;;;37.08;20.12;;;;;;;6.46;84.41;100411.66;2140944;81;20977;-73
2021/11/22 09:08:29;;;;;;;35.63;17.92;;;;;;;6.58;84.04;100417.18;2137958;81;21575;-74
2021/11/22 09:11:32;;;;;;;34.58;18.85;;;;;;;6.73;83.88;100409.27;2140088;81;21063;-74
2021/11/22 09:14:34;;;;;;;36.70;19.70;;;;;;;6.89;83.85;100417.95;2135465;81;21564;-75
2021/11/22 09:17:36;;;;;;;33.05;19.23;;;;;;;7.12;83.88;100417.26;2139116;81;21063;-75
2021/11/22 09:20:37;;;;;;;36.00;18.95;;;;;;;7.28;83.19;100419.34;2137199;81;20960;-75
2021/11/22 09:23:41;;;;;;;34.63;19.55;;;;;;;7.39;82.82;100423.66;2140124;81;21050;-76
2021/11/22 09:26:43;;;;;;;35.95;20.10;;;;;;;7.29;82.24;100426.77;2136705;81;21036;-75
2021/11/22 09:29:44;;;;;;;50.95;22.10;;;;;;;7.19;82.13;100436.83;2138342;81;21014;-75
2021/11/22 09:32:46;;;;;;;33.92;19.42;;;;;;;7.12;82.15;100437.05;2142156;81;20962;-76
2021/11/22 09:35:48;;;;;;;31.68;19.25;;;;;;;6.99;81.98;100431.67;2134659;81;21045;-76
2021/11/22 09:38:51;;;;;;;33.60;18.40;;;;;;;6.89;82.06;100430.31;2139524;81;21485;-76
2021/11/22 09:41:53;;;;;;;37.30;19.40;;;;;;;6.78;81.91;100435.70;2142577;81;21608;-75
2021/11/22 09:44:54;;;;;;;35.68;20.27;;;;;;;6.69;82.06;100434.70;2142870;81;20974;-76
2021/11/22 09:48:00;;;;;;;35.78;20.95;;;;;;;6.61;82.17;100438.49;2138043;81;21024;-75
2021/11/22 09:51:02;;;;;;;34.83;21.02;;;;;;;6.55;82.22;100448.26;2138899;81;21047;-74
2021/11/22 09:54:05;;;;;;;37.93;20.72;;;;;;;6.53;82.49;100447.06;2139703;81;21473;-74
2021/11/22 09:57:07;;;;;;;33.18;19.57;;;;;;;6.50;82.55;100449.96;2138964;81;21034;-74
2021/11/22 10:00:12;;;;;;;32.33;20.05;;;;;;;6.53;82.54;100456.28;2139046;81;21526;-74
2021/11/22 10:03:20;;;;;;;30.80;20.00;;;;;;;6.55;82.79;100454.36;2135115;81;21071;-75
2021/11/22 10:06:22;;;;;;;29.55;17.57;;;;;;;6.56;82.59;100457.83;2137507;81;21874;-74
2021/11/22 10:09:37;;;;;;;35.95;18.60;;;;;;;6.49;82.44;100450.94;2141461;81;22150;-75
2021/11/22 10:12:41;;;;;;;33.50;19.57;;;;;;;6.41;82.47;100452.08;2144077;81;21499;-72
2021/11/22 10:15:42;;;;;;;38.85;21.35;;;;;;;6.34;82.50;100453.10;2142473;81;21619;-74
2021/11/22 10:18:48;;;;;;;35.68;21.80;;;;;;;6.26;82.53;100458.19;2139617;81;20967;-75
2021/11/22 10:21:50;;;;;;;37.78;19.57;;;;;;;6.19;82.41;100456.53;2141186;81;21047;-72
2021/11/22 10:24:57;;;;;;;36.40;20.10;;;;;;;6.12;82.59;100455.89;2140682;81;21442;-72
2021/11/22 10:28:22;;;;;;;35.50;20.35;;;;;;;6.14;82.81;100459.20;2132025;81;20996;-72
2021/11/22 10:31:27;;;;;;;39.63;21.62;;;;;;;6.15;82.82;100455.62;2137248;81;20971;-72
2021/11/22 10:34:35;;;;;;;38.78;20.72;;;;;;;6.13;82.67;100461.50;2136885;81;20964;-71
2021/11/22 10:38:05;;;;;;;39.58;19.75;;;;;;;6.11;82.63;100462.10;2142713;81;21043;-72
2021/11/22 10:41:12;;;;;;;28.20;17.45;;;;;;;6.08;82.59;100460.56;2138877;81;21559;-73
2021/11/22 10:44:15;;;;;;;30.57;17.48;;;;;;;6.13;82.78;100461.02;2137854;81;20999;-72
2021/11/22 10:47:19;;;;;;;29.85;16.73;;;;;;;6.20;82.55;100462.17;2139775;81;21596;-73
2021/11/22 10:50:25;;;;;;;32.00;17.82;;;;;;;6.27;82.49;100467.27;2140258;81;20994;-73
2021/11/22 10:53:45;;;;;;;29.35;16.27;;;;;;;6.39;82.56;100472.45;2136551;81;21052;-73
2021/11/22 10:56:50;;;;;;;29.98;16.97;;;;;;;6.49;82.36;100469.39;2144224;81;21745;-73
2021/11/22 10:59:52;;;;;;;25.65;14.65;;;;;;;6.63;82.58;100475.62;2140058;81;21087;-74
2021/11/22 11:02:58;;;;;;;27.58;14.43;;;;;;;6.73;82.13;100476.52;2139117;81;21003;-73
2021/11/22 11:06:00;;;;;;;24.02;15.30;;;;;;;6.83;81.91;100479.66;2127774;81;21024;-73
2021/11/22 11:09:03;;;;;;;29.52;16.07;;;;;;;6.86;81.44;100481.54;2142238;81;21043;-73
2021/11/22 11:12:13;;;;;;;29.12;15.95;;;;;;;6.88;81.15;100484.05;2136686;81;21062;-73
2021/11/22 11:15:15;;;;;;;30.33;17.37;;;;;;;6.84;81.16;100486.59;2145209;81;21115;-74
2021/11/22 11:18:24;;;;;;;31.35;16.87;;;;;;;6.76;80.99;100488.60;2142970;81;21381;-73
2021/11/22 11:21:29;;;;;;;27.65;16.42;;;;;;;6.74;81.26;100492.67;2137289;81;21056;-73
2021/11/22 11:24:32;;;;;;;31.23;17.42;;;;;;;6.67;80.71;100492.88;2141402;81;21013;-73
2021/11/22 11:27:38;;;;;;;35.70;18.95;;;;;;;6.53;80.81;100493.69;2140788;81;21003;-73
2021/11/22 11:30:41;;;;;;;32.65;17.57;;;;;;;6.41;80.96;100493.77;2139912;81;21012;-73
2021/11/22 11:33:43;;;;;;;27.85;17.23;;;;;;;6.31;81.01;100490.72;2143671;81;21020;-74
2021/11/22 11:36:59;;;;;;;31.00;18.65;;;;;;;6.21;81.09;100501.22;2139745;81;20928;-73
2021/11/22 11:40:22;;;;;;;25.85;15.25;;;;;;;6.18;81.41;100499.67;2142605;81;21109;-72
2021/11/22 11:44:06;;;;;;;25.80;15.88;;;;;;;6.17;81.23;100500.65;2136655;81;20984;-71
2021/11/22 11:47:15;;;;;;;23.38;14.70;;;;;;;6.12;81.43;100493.61;2134391;81;21567;-74
2021/11/22 11:50:22;;;;;;;27.75;17.30;;;;;;;6.17;81.51;100490.59;2139991;81;22089;-74
2021/11/22 11:53:23;;;;;;;31.35;18.67;;;;;;;6.18;81.73;100499.67;2135938;81;21450;-74
2021/11/22 11:56:38;;;;;;;33.58;18.37;;;;;;;6.21;81.81;100499.41;2141665;81;21520;-74
2021/11/22 11:59:45;;;;;;;28.60;17.05;;;;;;;6.21;81.59;100506.00;2139999;81;21001;-73
2021/11/22 12:03:00;;;;;;;30.40;16.27;;;;;;;6.19;81.43;100505.28;2137107;81;21556;-73
2021/11/22 12:06:02;;;;;;;24.52;15.18;;;;;;;6.16;81.40;100506.86;2134291;81;21053;-74
2021/11/22 12:09:40;;;;;;;29.23;17.50;;;;;;;6.14;81.47;100505.31;2144094;81;20973;-74
2021/11/22 12:12:51;;;;;;;27.37;15.88;;;;;;;6.15;81.61;100506.52;2147523;81;21065;-74
2021/11/22 12:15:55;;;;;;;28.70;17.32;;;;;;;6.16;81.47;100513.45;2148080;81;21551;-75
2021/11/22 12:19:02;;;;;;;28.35;18.12;;;;;;;6.12;81.44;100510.73;2144686;81;21031;-74
2021/11/22 12:22:13;;;;;;;33.23;19.70;;;;;;;6.09;81.37;100516.26;2141990;81;21091;-74
2021/11/22 12:25:45;;;;;;;36.83;19.55;;;;;;;6.06;81.45;100519.16;2120938;81;21523;-74
2021/11/22 12:28:49;;;;;;;33.67;17.40;;;;;;;6.06;81.45;100523.11;2144350;81;21518;-73
2021/11/22 12:31:50;;;;;;;21.73;14.25;;;;;;;6.06;81.57;100529.20;2151906;81;21028;-75
2021/11/22 12:35:03;;;;;;;28.65;15.83;;;;;;;6.07;81.26;100532.67;2145429;81;20969;-74
2021/11/22 12:38:24;;;;;;;30.57;16.40;;;;;;;6.04;81.49;100536.88;2148557;81;22205;-74
2021/11/22 12:41:31;;;;;;;31.05;19.50;;;;;;;6.04;81.63;100536.88;2144670;81;20987;-73
2021/11/22 12:44:36;;;;;;;31.95;19.87;;;;;;;5.99;81.79;100545.64;2143768;81;21011;-74
2021/11/22 12:47:37;;;;;;;37.48;21.30;;;;;;;6.01;82.04;100538.45;2152859;81;21045;-76
2021/11/22 12:50:56;;;;;;;37.10;22.25;;;;;;;5.98;81.78;100549.25;2149485;81;22043;-75
2021/11/22 12:54:09;;;;;;;36.28;19.90;;;;;;;5.93;81.86;100544.80;2148589;81;21012;-72
2021/11/22 12:57:29;;;;;;;38.63;20.95;;;;;;;5.88;81.89;100551.75;2142562;81;21772;-76
2021/11/22 13:00:38;;;;;;;36.35;21.37;;;;;;;5.81;82.00;100561.12;2143319;81;21100;-76
2021/11/22 13:03:52;;;;;;;34.83;21.12;;;;;;;5.79;82.13;100569.14;2149179;81;21011;-76
2021/11/22 13:06:53;;;;;;;34.92;20.43;;;;;;;5.78;82.23;100564.84;2143455;80;21463;-76
2021/11/22 13:09:55;;;;;;;30.50;19.37;;;;;;;5.75;82.33;100569.05;2144569;81;21104;-75
2021/11/22 13:12:59;;;;;;;31.77;19.87;;;;;;;5.70;82.30;100573.84;2147530;81;21003;-75
2021/11/22 13:16:02;;;;;;;32.42;19.15;;;;;;;5.68;82.47;100581.51;2138237;81;21004;-75
2021/11/22 13:19:10;;;;;;;33.50;18.65;;;;;;;5.64;82.52;100583.56;2141114;81;21076;-75
2021/11/22 13:22:13;;;;;;;29.72;18.37;;;;;;;5.59;82.57;100585.72;2138527;81;21013;-76
2021/11/22 13:25:20;;;;;;;27.90;18.67;;;;;;;5.54;82.59;100586.08;2138129;81;21018;-74
2021/11/22 13:28:36;;;;;;;32.05;19.60;;;;;;;5.50;82.62;100590.41;2137669;81;20980;-74
2021/11/22 13:31:43;;;;;;;31.33;19.50;;;;;;;5.42;82.71;100595.45;2140936;81;21065;-74
2021/11/22 13:34:45;;;;;;;37.90;21.50;;;;;;;5.31;82.56;100594.50;2143104;81;21001;-73
2021/11/22 13:38:10;;;;;;;28.07;19.00;;;;;;;5.22;82.66;100604.44;2132928;81;21111;-73
2021/11/22 13:41:17;;;;;;;28.02;18.15;;;;;;;5.16;82.72;100604.92;2139890;81;21001;-73
2021/11/22 13:44:20;;;;;;;33.73;18.90;;;;;;;5.07;82.77;100608.28;2145241;81;22398;-74
2021/11/22 13:47:30;;;;;;;35.60;20.95;;;;;;;5.07;82.78;100613.54;2137064;81;21415;-73
2021/11/22 13:50:42;;;;;;;30.25;19.15;;;;;;;5.07;82.80;100619.63;2142289;81;21022;-74
2021/11/22 13:53:44;;;;;;;25.82;17.25;;;;;;;5.09;82.87;100630.02;2143696;81;21069;-73
2021/11/22 13:57:00;;;;;;;30.52;19.17;;;;;;;5.08;82.83;100629.19;2141775;81;21534;-74
2021/11/22 14:00:04;;;;;;;34.25;19.73;;;;;;;5.10;82.80;100633.03;2140393;81;21012;-74
2021/11/22 14:03:11;;;;;;;29.00;18.40;;;;;;;5.13;82.68;100632.78;2136877;81;21386;-74
2021/11/22 14:06:13;;;;;;;28.57;17.20;;;;;;;5.11;82.45;100638.64;2141137;81;20971;-74
2021/11/22 14:09:16;;;;;;;25.08;17.17;;;;;;;5.08;82.46;100644.14;2141454;81;21030;-74